Time;durP1;ratioP1;P1;durP2;ratioP2;P2;SDS_P1;SDS_P2;PMS_P1;PMS_P2;Temp;Humidity;BMP_temperature;BMP_pressure;BME280_temperature;BME280_humidity;BME280_pressure;Samples;Min_cycle;Max_cycle;Signal;HPM_P1;HPM_P2
2022/12/11 00:00:39;;;;;;;;;21.00;19.75;;;;;4.90;60.70;100888.75;5012247;28;45234;-77
2022/12/11 00:03:05;;;;;;;;;22.50;18.25;;;;;4.89;61.21;100881.69;4999104;28;45392;-77
2022/12/11 00:05:31;;;;;;;;;13.25;13.25;;;;;4.86;61.15;100879.94;5014142;28;45376;-77
2022/12/11 00:07:57;;;;;;;;;20.00;18.50;;;;;4.85;61.43;100882.59;5014655;28;46207;-77
2022/12/11 00:10:23;;;;;;;;;21.50;17.50;;;;;4.84;61.04;100879.06;5012473;28;45725;-77
2022/12/11 00:12:48;;;;;;;;;20.50;19.00;;;;;4.88;60.83;100878.16;5004765;28;45636;-77
2022/12/11 00:15:14;;;;;;;;;22.00;17.50;;;;;4.87;60.64;100865.81;5018579;28;45328;-77
2022/12/11 00:17:39;;;;;;;;;24.00;19.75;;;;;4.90;61.64;100857.88;5017473;28;45319;-77
2022/12/11 00:20:05;;;;;;;;;25.25;20.25;;;;;4.97;60.84;100861.34;5005840;28;45375;-78
2022/12/11 00:22:30;;;;;;;;;20.00;17.50;;;;;4.98;61.31;100863.13;5016613;28;45393;-77
2022/12/11 00:24:55;;;;;;;;;22.75;16.25;;;;;4.99;61.30;100863.09;5001154;28;45330;-77
2022/12/11 00:27:21;;;;;;;;;19.00;17.25;;;;;5.00;61.22;100862.19;5008670;28;46007;-78
2022/12/11 00:29:46;;;;;;;;;20.25;17.50;;;;;5.00;60.90;100853.38;5001068;28;45429;-77
2022/12/11 00:32:12;;;;;;;;;25.75;20.50;;;;;4.94;60.18;100835.78;4998846;28;45382;-77
2022/12/11 00:34:37;;;;;;;;;20.75;17.50;;;;;4.83;60.97;100829.72;4998555;28;45340;-77
2022/12/11 00:37:03;;;;;;;;;20.75;20.25;;;;;4.83;60.30;100827.06;5004784;28;46019;-77
2022/12/11 00:39:28;;;;;;;;;16.75;16.50;;;;;4.85;60.65;100835.00;5004949;28;45414;-77
2022/12/11 00:41:53;;;;;;;;;24.00;18.00;;;;;4.86;60.74;100837.63;4998877;28;45480;-77
2022/12/11 00:44:19;;;;;;;;;24.75;18.50;;;;;4.85;60.47;100840.28;4998374;28;45619;-77
2022/12/11 00:46:44;;;;;;;;;19.75;17.25;;;;;4.89;61.10;100842.00;5007211;28;45948;-77
2022/12/11 00:49:09;;;;;;;;;22.00;17.75;;;;;4.87;60.58;100838.50;5013134;28;45545;-77
2022/12/11 00:51:35;;;;;;;;;20.50;19.75;;;;;4.86;61.10;100845.56;5007062;28;45404;-77
2022/12/11 00:54:00;;;;;;;;;20.00;18.25;;;;;4.76;60.32;100833.25;5015880;28;45372;-77
2022/12/11 00:56:25;;;;;;;;;30.50;23.25;;;;;4.72;60.50;100835.06;5015435;28;46670;-77
2022/12/11 00:58:51;;;;;;;;;19.00;10.50;;;;;4.76;60.55;100836.81;5016332;28;45484;-77
2022/12/11 01:01:24;;;;;;;;;24.50;20.50;;;;;4.72;60.47;100839.47;5007378;28;45410;-77
2022/12/11 01:03:49;;;;;;;;;23.75;21.50;;;;;4.71;60.45;100828.03;4998716;28;45626;-77
2022/12/11 01:06:18;;;;;;;;;23.25;18.25;;;;;4.74;61.60;100827.97;5017523;28;46385;-77
2022/12/11 01:08:44;;;;;;;;;24.75;17.75;;;;;4.72;60.75;100828.91;5003399;28;45616;-77
2022/12/11 01:11:12;;;;;;;;;24.75;21.50;;;;;4.75;61.38;100835.03;5018154;28;45356;-77
2022/12/11 01:13:38;;;;;;;;;22.00;17.75;;;;;4.74;61.20;100833.28;5010478;28;45516;-77
2022/12/11 01:16:13;;;;;;;;;27.25;22.25;;;;;4.71;61.15;100821.84;5017674;28;46197;-77
2022/12/11 01:18:39;;;;;;;;;19.75;16.75;;;;;4.66;61.27;100819.25;4998777;28;45314;-77
2022/12/11 01:21:07;;;;;;;;;20.75;19.25;;;;;4.61;60.84;100818.38;5013469;28;45465;-77
2022/12/11 01:23:33;;;;;;;;;19.00;14.50;;;;;4.58;61.23;100818.44;5003199;28;45620;-77
2022/12/11 01:26:11;;;;;;;;;18.25;17.25;;;;;4.53;60.61;100813.16;5000692;28;46187;-77
2022/12/11 01:28:37;;;;;;;;;17.75;16.25;;;;;4.52;61.38;100821.97;5003220;28;45833;-77
2022/12/11 01:31:10;;;;;;;;;17.50;14.50;;;;;4.54;61.50;100825.47;5020126;28;45275;-77
2022/12/11 01:33:36;;;;;;;;;19.75;12.25;;;;;4.57;61.93;100828.09;5012652;28;45462;-77
2022/12/11 01:36:07;;;;;;;;;17.75;13.75;;;;;4.60;60.88;100819.28;5001543;28;46708;-77
2022/12/11 01:38:32;;;;;;;;;13.25;13.25;;;;;4.62;60.68;100817.50;5015196;28;45814;-77
2022/12/11 01:40:57;;;;;;;;;14.00;12.25;;;;;4.65;61.55;100822.78;5004796;28;45365;-77
2022/12/11 01:43:23;;;;;;;;;16.00;10.50;;;;;4.72;61.45;100828.91;5001261;28;45368;-77
2022/12/11 01:45:48;;;;;;;;;19.25;16.00;;;;;4.74;61.16;100827.97;5003840;28;46381;-77
2022/12/11 01:48:18;;;;;;;;;16.25;13.25;;;;;4.71;61.25;100828.03;5000825;28;45811;-77
2022/12/11 01:50:50;;;;;;;;;12.00;10.00;;;;;4.73;61.41;100836.81;5000941;28;45252;-77
2022/12/11 01:53:22;;;;;;;;;15.75;12.75;;;;;4.74;61.18;100841.22;5006163;28;45302;-77
2022/12/11 01:55:50;;;;;;;;;13.75;12.75;;;;;4.74;60.36;100838.56;5016949;28;46147;-77
2022/12/11 01:58:17;;;;;;;;;20.75;17.25;;;;;4.67;61.07;100844.78;5019606;28;45340;-77
2022/12/11 02:00:42;;;;;;;;;14.25;12.25;;;;;4.64;60.92;100836.88;5001636;28;45325;-77
2022/12/11 02:03:08;;;;;;;;;17.25;13.75;;;;;4.69;61.20;100847.44;5000766;28;45342;-76
2022/12/11 02:05:33;;;;;;;;;12.75;12.50;;;;;4.66;61.51;100835.13;5006220;28;46463;-77
2022/12/11 02:08:01;;;;;;;;;15.25;14.25;;;;;4.60;60.95;100832.50;5000561;28;45429;-77
2022/12/11 02:10:58;;;;;;;;;13.50;12.50;;;;;4.58;60.97;100824.59;5007372;28;45476;-76
2022/12/11 02:13:37;;;;;;;;;19.75;16.50;;;;;4.58;60.57;100832.50;4999412;28;45310;-77
2022/12/11 02:16:20;;;;;;;;;20.00;14.25;;;;;4.57;61.17;100821.94;5006237;28;46054;-77
2022/12/11 02:19:21;;;;;;;;;17.00;14.75;;;;;4.57;60.60;100821.94;5000648;28;45706;-76
2022/12/11 02:21:51;;;;;;;;;12.00;10.25;;;;;4.56;61.17;100810.50;5003162;28;45541;-77
2022/12/11 02:24:44;;;;;;;;;16.50;14.00;;;;;4.55;61.05;100814.03;5005019;28;45314;-77
2022/12/11 02:27:55;;;;;;;;;10.00;9.00;;;;;4.55;61.12;100810.50;5012198;28;46348;-77
2022/12/11 02:30:21;;;;;;;;;13.25;12.00;;;;;4.57;60.83;100816.66;4992490;28;45464;-76
2022/12/11 02:32:54;;;;;;;;;17.50;13.25;;;;;4.56;60.59;100814.88;5000599;28;45372;-77
2022/12/11 02:35:39;;;;;;;;;15.50;8.00;;;;;4.61;60.82;100808.72;5014714;28;45729;-77
2022/12/11 02:38:13;;;;;;;;;14.75;10.75;;;;;4.62;61.43;100806.94;5010512;28;46123;-77
2022/12/11 02:40:41;;;;;;;;;12.25;10.25;;;;;4.63;60.55;100814.84;5006168;28;45990;-77
2022/12/11 02:43:10;;;;;;;;;12.00;12.00;;;;;4.63;60.96;100806.91;5003423;28;45576;-77
2022/12/11 02:45:39;;;;;;;;;11.50;9.50;;;;;4.58;61.42;100799.91;5003351;28;45747;-77
2022/12/11 02:48:07;;;;;;;;;12.00;9.50;;;;;4.56;60.96;100793.75;5007585;28;45689;-76
2022/12/11 02:50:35;;;;;;;;;12.25;11.00;;;;;4.51;60.89;100793.78;4999920;28;45465;-76
2022/12/11 02:53:03;;;;;;;;;12.25;11.50;;;;;4.45;60.75;100799.97;5008732;28;45488;-77
2022/12/11 02:55:31;;;;;;;;;18.50;14.00;;;;;4.37;60.54;100800.94;5015734;28;45439;-77
2022/12/11 02:58:16;;;;;;;;;14.75;11.00;;;;;4.26;61.14;100796.59;5018390;28;45503;-76
2022/12/11 03:00:44;;;;;;;;;12.25;12.25;;;;;4.20;61.32;100793.09;5001762;28;45347;-77
2022/12/11 03:03:09;;;;;;;;;15.25;12.75;;;;;4.19;61.04;100799.25;5000237;28;45340;-77
2022/12/11 03:05:35;;;;;;;;;16.25;14.50;;;;;4.12;61.18;100797.53;4999712;28;45264;-76
2022/12/11 03:08:01;;;;;;;;;14.25;12.50;;;;;4.10;61.30;100794.03;4999629;28;46102;-76
2022/12/11 03:10:26;;;;;;;;;16.50;11.50;;;;;4.08;60.90;100794.91;5014446;28;45291;-76
2022/12/11 03:12:54;;;;;;;;;9.25;9.25;;;;;4.08;61.46;100799.31;5012791;28;45487;-77
2022/12/11 03:15:29;;;;;;;;;12.75;9.25;;;;;4.07;61.54;100800.19;5017737;28;45574;-76
2022/12/11 03:18:40;;;;;;;;;15.00;12.25;;;;;4.01;61.74;100797.56;5004631;28;46292;-77
2022/12/11 03:21:16;;;;;;;;;12.00;9.00;;;;;3.89;60.82;100778.28;5009609;28;45301;-77
2022/12/11 03:24:14;;;;;;;;;12.50;11.50;;;;;3.87;60.78;100787.94;5000623;28;45483;-76
2022/12/11 03:26:48;;;;;;;;;11.50;8.25;;;;;3.80;61.21;100796.78;5004055;28;45774;-76
2022/12/11 03:29:24;;;;;;;;;9.50;8.75;;;;;3.75;61.30;100795.06;5006369;28;46914;-76
2022/12/11 03:31:59;;;;;;;;;7.75;6.00;;;;;3.77;62.10;100788.00;5000696;28;45951;-77
2022/12/11 03:34:32;;;;;;;;;6.25;5.00;;;;;3.78;62.02;100788.00;5015447;28;45402;-77
2022/12/11 03:36:58;;;;;;;;;9.00;9.00;;;;;3.77;61.67;100782.72;5000368;28;45471;-77
2022/12/11 03:39:39;;;;;;;;;9.50;8.25;;;;;3.80;61.69;100783.59;5015770;28;46112;-76
2022/12/11 03:42:08;;;;;;;;;10.50;10.50;;;;;3.85;61.46;100783.56;4998686;28;45755;-77
2022/12/11 03:44:35;;;;;;;;;7.00;7.00;;;;;3.85;61.45;100792.38;4998923;28;45381;-76
2022/12/11 03:47:04;;;;;;;;;10.00;8.75;;;;;3.82;60.96;100789.72;5018485;28;45467;-77
2022/12/11 03:49:35;;;;;;;;;8.25;8.00;;;;;3.74;61.04;100777.44;4999084;28;46199;-77
2022/12/11 03:52:03;;;;;;;;;8.25;8.25;;;;;3.73;61.63;100781.00;4999418;28;45323;-76
2022/12/11 03:54:29;;;;;;;;;4.00;4.00;;;;;3.68;61.65;100786.28;5017890;28;45313;-76
2022/12/11 03:56:58;;;;;;;;;13.25;11.00;;;;;3.63;61.65;100785.41;5015071;28;45374;-76
2022/12/11 03:59:23;;;;;;;;;15.00;11.00;;;;;3.59;61.76;100787.19;5011238;28;45313;-77
2022/12/11 04:01:49;;;;;;;;;13.25;10.25;;;;;3.59;61.89;100778.38;4999227;28;45306;-77
2022/12/11 04:04:15;;;;;;;;;11.75;9.00;;;;;3.60;61.64;100770.44;4999054;28;45510;-76
2022/12/11 04:06:40;;;;;;;;;8.75;7.50;;;;;3.62;62.23;100773.09;4999118;28;45337;-77
2022/12/11 04:09:06;;;;;;;;;12.50;9.75;;;;;3.62;62.09;100775.72;5000880;28;46980;-77
2022/12/11 04:11:34;;;;;;;;;18.25;11.00;;;;;3.60;61.47;100765.19;5004098;28;46649;-76
2022/12/11 04:16:57;;;;;;;;;9.00;9.00;;;;;3.57;62.25;100761.66;5012602;28;45371;-76
2022/12/11 04:24:56;;;;;;;;;8.25;7.75;;;;;3.62;61.80;100770.44;5005016;28;45524;-76
2022/12/11 04:30:09;;;;;;;;;8.50;7.00;;;;;3.66;62.22;100774.84;5003367;28;47207;-76
2022/12/11 04:32:35;;;;;;;;;9.00;7.25;;;;;3.58;61.75;100766.94;5014657;28;45948;-76
2022/12/11 04:35:00;;;;;;;;;11.00;8.00;;;;;3.57;61.76;100770.47;5004368;28;45643;-76
2022/12/11 04:37:27;;;;;;;;;13.25;10.75;;;;;3.51;62.13;100758.16;5011465;28;45428;-76
2022/12/11 04:39:52;;;;;;;;;14.25;10.50;;;;;3.46;62.10;100756.44;5010957;28;47161;-76
2022/12/11 04:42:17;;;;;;;;;11.25;8.25;;;;;3.46;62.17;100761.72;4998523;28;45437;-76
2022/12/11 04:44:43;;;;;;;;;10.50;9.50;;;;;3.37;61.90;100746.75;5010051;28;45369;-76
2022/12/11 04:47:08;;;;;;;;;14.00;10.75;;;;;3.48;62.15;100759.94;4998209;28;45441;-76
2022/12/11 04:49:33;;;;;;;;;11.00;8.75;;;;;3.45;62.15;100757.31;4998226;28;45952;-76
2022/12/11 04:51:59;;;;;;;;;12.25;12.25;;;;;3.47;62.13;100740.56;5008572;28;45400;-76
2022/12/11 04:54:24;;;;;;;;;11.25;5.00;;;;;3.52;62.44;100740.56;5014714;28;45418;-76
2022/12/11 04:56:49;;;;;;;;;8.25;7.75;;;;;3.59;62.61;100741.41;5017673;28;45805;-76
2022/12/11 04:59:15;;;;;;;;;12.75;9.50;;;;;3.52;61.93;100725.63;5002041;28;45351;-76
2022/12/11 05:01:40;;;;;;;;;8.75;8.25;;;;;3.65;62.09;100731.72;5020457;28;45388;-76
2022/12/11 05:04:05;;;;;;;;;10.00;9.00;;;;;3.68;62.26;100737.00;5002075;28;45419;-76
2022/12/11 05:06:31;;;;;;;;;13.25;9.75;;;;;3.69;61.89;100732.56;5004890;28;45588;-76
2022/12/11 05:08:56;;;;;;;;;13.00;11.50;;;;;3.67;61.81;100744.91;5001722;28;46640;-76
2022/12/11 05:11:22;;;;;;;;;11.50;8.00;;;;;3.58;62.15;100737.03;5001622;28;45451;-76
2022/12/11 05:13:48;;;;;;;;;10.25;9.00;;;;;3.55;62.28;100729.13;5012715;28;45416;-76
2022/12/11 05:16:15;;;;;;;;;11.00;8.00;;;;;3.58;61.92;100743.19;5005971;28;45441;-77
2022/12/11 05:18:40;;;;;;;;;9.75;8.50;;;;;3.46;62.28;100730.91;5013495;28;46363;-76
2022/12/11 05:21:09;;;;;;;;;11.50;9.00;;;;;3.42;62.20;100729.16;5016033;28;45323;-76
2022/12/11 05:23:34;;;;;;;;;9.75;8.00;;;;;3.42;62.41;100728.28;5012994;28;45595;-76
2022/12/11 05:26:02;;;;;;;;;10.00;8.50;;;;;3.44;62.33;100727.41;5013605;28;45519;-76
2022/12/11 05:28:32;;;;;;;;;13.00;10.00;;;;;3.53;62.23;100731.78;5001107;28;46403;-76
2022/12/11 05:31:13;;;;;;;;;11.50;9.50;;;;;3.57;62.35;100728.22;5006341;28;45323;-76
2022/12/11 05:33:38;;;;;;;;;11.25;11.00;;;;;3.52;62.19;100740.56;5001414;28;45420;-76
2022/12/11 05:36:05;;;;;;;;;15.50;12.00;;;;;3.46;61.94;100738.84;5000348;28;45473;-76
2022/12/11 05:38:30;;;;;;;;;11.00;10.00;;;;;3.49;62.40;100745.84;5014831;28;46603;-77
2022/12/11 05:41:01;;;;;;;;;14.75;10.50;;;;;3.47;62.37;100744.97;5007002;28;45454;-76
2022/12/11 05:43:29;;;;;;;;;15.75;8.50;;;;;3.34;62.35;100736.22;5001425;28;45358;-76
2022/12/11 05:45:55;;;;;;;;;10.75;10.00;;;;;3.24;61.75;100734.47;5001036;28;45343;-76
2022/12/11 05:48:21;;;;;;;;;12.25;8.50;;;;;3.17;61.99;100735.41;5000803;28;45334;-76
2022/12/11 05:50:57;;;;;;;;;12.00;8.25;;;;;3.17;62.26;100732.75;5004056;28;45231;-76
2022/12/11 05:53:23;;;;;;;;;11.25;8.25;;;;;3.17;62.07;100735.41;5001578;28;45394;-76
2022/12/11 05:55:48;;;;;;;;;17.50;11.25;;;;;3.12;62.84;100728.38;5009037;28;45346;-77
2022/12/11 05:58:13;;;;;;;;;10.00;7.00;;;;;3.11;62.86;100726.63;5006273;28;46852;-76
2022/12/11 06:00:40;;;;;;;;;9.00;4.00;;;;;3.10;62.35;100730.13;5005524;28;45286;-76
2022/12/11 06:03:06;;;;;;;;;19.50;15.75;;;;;3.01;62.66;100735.44;5001280;28;45396;-77
2022/12/11 06:05:31;;;;;;;;;19.25;17.00;;;;;3.00;62.63;100733.66;4999754;28;45465;-76
2022/12/11 06:07:56;;;;;;;;;14.25;14.00;;;;;2.90;62.23;100727.50;5000405;28;45996;-76
2022/12/11 06:10:22;;;;;;;;;18.50;12.50;;;;;2.93;62.55;100724.88;5000608;28;45326;-76
2022/12/11 06:12:47;;;;;;;;;16.25;13.75;;;;;2.94;62.76;100724.00;5009514;28;45361;-76
2022/12/11 06:15:12;;;;;;;;;12.75;12.00;;;;;3.02;62.60;100723.97;5020394;28;45372;-76
2022/12/11 06:17:38;;;;;;;;;19.00;14.50;;;;;3.08;62.89;100716.06;5008261;28;46148;-76
2022/12/11 06:20:03;;;;;;;;;16.75;13.75;;;;;3.14;62.52;100723.06;5006821;28;45381;-76
2022/12/11 06:22:29;;;;;;;;;17.50;14.75;;;;;3.16;62.88;100726.63;5019405;28;45413;-76
2022/12/11 06:24:54;;;;;;;;;19.50;16.50;;;;;3.13;62.72;100716.06;5007858;28;45414;-76
2022/12/11 06:27:20;;;;;;;;;25.50;18.25;;;;;3.05;62.54;100717.84;5008883;28;46264;-75
2022/12/11 06:29:45;;;;;;;;;22.50;18.75;;;;;3.01;62.07;100716.06;5006507;28;45597;-75
2022/12/11 06:32:11;;;;;;;;;22.75;21.00;;;;;2.94;62.66;100712.56;5020110;28;45399;-76
2022/12/11 06:34:36;;;;;;;;;24.00;22.00;;;;;2.90;62.68;100710.81;5003042;28;45543;-76
2022/12/11 06:37:01;;;;;;;;;22.00;20.25;;;;;2.84;62.93;100713.47;5002083;28;45987;-76
2022/12/11 06:39:26;;;;;;;;;27.50;21.00;;;;;2.86;62.81;100706.44;4998374;28;45324;-75
2022/12/11 06:41:53;;;;;;;;;25.00;21.50;;;;;2.85;62.77;100705.53;5000548;28;45372;-76
2022/12/11 06:44:18;;;;;;;;;26.00;20.75;;;;;2.80;62.60;100690.63;5002713;28;45658;-76
2022/12/11 06:46:43;;;;;;;;;23.50;18.50;;;;;2.89;62.85;100693.22;5000669;28;45953;-75
2022/12/11 06:49:09;;;;;;;;;25.25;21.00;;;;;2.89;62.93;100701.16;5005711;28;45458;-76
2022/12/11 06:51:34;;;;;;;;;36.50;22.75;;;;;2.94;62.93;100700.28;5004801;28;45470;-76
2022/12/11 06:53:59;;;;;;;;;31.00;25.00;;;;;3.00;63.02;100695.88;5006332;28;45737;-76
2022/12/11 06:56:25;;;;;;;;;24.25;19.75;;;;;3.02;62.55;100697.59;5009105;28;46229;-76
2022/12/11 06:58:51;;;;;;;;;30.25;22.50;;;;;3.06;62.56;100702.00;5002265;28;45531;-76
2022/12/11 07:01:27;;;;;;;;;27.00;22.75;;;;;3.09;62.76;100702.00;5000205;28;45417;-76
2022/12/11 07:03:56;;;;;;;;;32.25;24.00;;;;;3.10;62.34;100700.25;5005458;28;45413;-76
2022/12/11 07:06:23;;;;;;;;;23.50;21.00;;;;;3.15;62.51;100701.09;5006666;28;47140;-76
2022/12/11 07:08:48;;;;;;;;;28.50;24.50;;;;;3.18;62.29;100697.59;4999658;28;45333;-76
2022/12/11 07:11:16;;;;;;;;;34.25;27.50;;;;;3.23;62.11;100699.31;5010996;28;45310;-76
2022/12/11 07:13:41;;;;;;;;;20.25;17.00;;;;;3.29;62.13;100694.03;5012925;28;45345;-76
2022/12/11 07:16:09;;;;;;;;;27.75;19.25;;;;;3.31;61.65;100696.69;5017080;28;45933;-76
2022/12/11 07:18:39;;;;;;;;;22.00;13.75;;;;;3.36;62.56;100700.16;5004933;28;45406;-76
2022/12/11 07:21:06;;;;;;;;;19.75;15.00;;;;;3.35;62.35;100701.03;5009651;28;45491;-76
2022/12/11 07:23:33;;;;;;;;;27.00;24.75;;;;;3.38;62.39;100701.03;5012705;28;45641;-76
2022/12/11 07:26:13;;;;;;;;;29.00;24.25;;;;;3.42;61.87;100713.31;5019079;28;45711;-76
2022/12/11 07:28:39;;;;;;;;;32.50;23.50;;;;;3.43;62.00;100707.16;4999797;28;45275;-76
2022/12/11 07:31:09;;;;;;;;;28.00;22.50;;;;;3.45;61.90;100708.03;4999070;28;45313;-76
2022/12/11 07:33:34;;;;;;;;;38.25;29.25;;;;;3.46;62.20;100708.94;4998730;28;45410;-76
2022/12/11 07:36:04;;;;;;;;;31.50;25.75;;;;;3.48;62.20;100715.94;5014346;28;45562;-75
2022/12/11 07:38:30;;;;;;;;;32.00;29.00;;;;;3.51;61.38;100720.34;5009855;28;45634;-76
2022/12/11 07:40:59;;;;;;;;;21.50;21.50;;;;;3.42;61.51;100715.09;4999158;28;45389;-76
2022/12/11 07:43:24;;;;;;;;;24.00;23.75;;;;;3.36;61.37;100723.91;5011299;28;45380;-76
2022/12/11 07:45:49;;;;;;;;;32.75;28.50;;;;;3.22;61.53;100716.03;4998109;28;46343;-74
2022/12/11 07:48:15;;;;;;;;;38.25;34.00;;;;;3.17;62.14;100711.66;4999348;28;45425;-71
2022/12/11 07:50:40;;;;;;;;;30.75;25.50;;;;;3.13;61.78;100716.06;5002871;28;45409;-70
2022/12/11 07:53:06;;;;;;;;;29.25;22.00;;;;;3.13;62.46;100716.94;5003149;28;46126;-71
2022/12/11 07:55:31;;;;;;;;;32.25;26.00;;;;;3.17;62.34;100707.25;5010893;28;46212;-71
2022/12/11 07:57:57;;;;;;;;;29.75;24.75;;;;;3.22;61.77;100715.16;5004583;28;45365;-72
2022/12/11 08:00:22;;;;;;;;;35.75;28.75;;;;;3.26;61.82;100706.38;5005499;28;45429;-71
2022/12/11 08:02:47;;;;;;;;;38.75;35.25;;;;;3.30;61.64;100708.97;5002067;28;45399;-72
2022/12/11 08:05:13;;;;;;;;;31.50;27.25;;;;;3.29;61.49;100706.31;5008444;28;45999;-73
2022/12/11 08:07:38;;;;;;;;;36.50;32.25;;;;;3.32;61.64;100708.97;5005329;28;45621;-72
2022/12/11 08:10:04;;;;;;;;;15.25;0.25;;;;;3.29;62.08;100704.59;5004819;28;45263;-74
2022/12/11 08:12:30;;;;;;;;;33.00;27.00;;;;;3.36;61.92;100709.81;5001855;28;45609;-74
2022/12/11 08:14:55;;;;;;;;;30.25;24.50;;;;;3.33;61.82;100719.50;5000742;28;46276;-72
2022/12/11 08:17:21;;;;;;;;;25.25;20.75;;;;;3.30;61.69;100714.25;5014152;28;45457;-75
2022/12/11 08:19:46;;;;;;;;;34.50;22.50;;;;;3.27;61.50;100708.97;5003891;28;45528;-75
2022/12/11 08:22:13;;;;;;;;;32.50;29.50;;;;;3.24;61.30;100714.28;5005988;28;47100;-76
2022/12/11 08:24:38;;;;;;;;;38.50;27.50;;;;;3.18;61.29;100716.94;5011311;28;47457;-75
2022/12/11 08:27:04;;;;;;;;;22.00;16.75;;;;;3.20;61.85;100714.28;5009480;28;45561;-75
2022/12/11 08:29:29;;;;;;;;;30.00;25.50;;;;;3.21;62.20;100716.03;5018693;28;45555;-76
2022/12/11 08:31:55;;;;;;;;;39.00;26.25;;;;;3.26;61.64;100719.56;5011786;28;45563;-76
2022/12/11 08:34:21;;;;;;;;;34.75;29.00;;;;;3.26;62.20;100724.84;5016361;28;47150;-76
2022/12/11 08:36:46;;;;;;;;;26.50;25.25;;;;;3.28;61.63;100713.38;5021799;28;45405;-75
2022/12/11 08:39:12;;;;;;;;;36.25;32.50;;;;;3.28;62.52;100718.66;5009144;28;45312;-75
2022/12/11 08:41:37;;;;;;;;;40.50;34.00;;;;;3.31;61.76;100717.78;5012422;28;46850;-76
2022/12/11 08:44:03;;;;;;;;;36.00;26.25;;;;;3.33;61.60;100727.44;5013325;28;45426;-77
2022/12/11 08:46:30;;;;;;;;;31.50;26.75;;;;;3.31;61.33;100712.50;5009855;28;45476;-76
2022/12/11 08:48:57;;;;;;;;;33.25;29.25;;;;;3.30;62.06;100723.94;5002144;28;45549;-76
2022/12/11 08:51:25;;;;;;;;;35.00;25.75;;;;;3.32;61.86;100727.44;5005059;28;45400;-76
2022/12/11 08:53:53;;;;;;;;;43.25;29.50;;;;;3.36;61.73;100723.03;5012690;28;46678;-76
2022/12/11 08:56:20;;;;;;;;;31.00;25.25;;;;;3.35;61.52;100716.88;5014159;28;45445;-76
2022/12/11 08:58:46;;;;;;;;;36.25;29.00;;;;;3.43;61.73;100730.06;5019718;28;45392;-76
2022/12/11 09:01:18;;;;;;;;;31.25;23.75;;;;;3.44;61.51;100710.69;5014095;28;45395;-76
2022/12/11 09:03:43;;;;;;;;;32.25;28.00;;;;;3.43;61.71;100703.66;5009238;28;46356;-77
2022/12/11 09:06:12;;;;;;;;;27.25;24.50;;;;;3.48;61.72;100704.53;5009989;28;45273;-76
2022/12/11 09:08:38;;;;;;;;;34.25;26.75;;;;;3.55;61.52;100719.44;5011658;28;46275;-77
2022/12/11 09:11:09;;;;;;;;;29.50;25.25;;;;;3.53;61.22;100710.66;5001762;28;45479;-77
2022/12/11 09:13:35;;;;;;;;;34.50;28.00;;;;;3.47;60.82;100697.47;5014455;28;46085;-76
2022/12/11 09:16:04;;;;;;;;;34.75;25.75;;;;;3.56;61.42;100715.03;5010055;28;45889;-77
2022/12/11 09:18:29;;;;;;;;;33.75;31.75;;;;;3.52;60.76;100714.16;5001249;28;45317;-78
2022/12/11 09:21:03;;;;;;;;;30.25;27.25;;;;;3.51;61.12;100720.34;5014511;28;45550;-78
2022/12/11 09:23:29;;;;;;;;;26.00;23.50;;;;;3.42;60.57;100717.72;5006200;28;45520;-77
2022/12/11 09:25:55;;;;;;;;;32.75;29.75;;;;;3.38;61.24;100716.88;5001240;28;45336;-78
2022/12/11 09:28:21;;;;;;;;;28.00;25.75;;;;;3.36;60.54;100718.63;5001348;28;45514;-78
2022/12/11 09:30:46;;;;;;;;;28.25;27.75;;;;;3.41;61.06;100721.25;5001342;28;45254;-77
2022/12/11 09:33:11;;;;;;;;;26.00;20.25;;;;;3.40;60.51;100722.16;5017143;28;45515;-77
2022/12/11 09:35:37;;;;;;;;;27.75;25.00;;;;;3.39;61.03;100715.09;5019255;28;45281;-77
2022/12/11 09:38:03;;;;;;;;;31.50;26.50;;;;;3.38;61.03;100726.56;5012685;28;47268;-83
2022/12/11 09:40:28;;;;;;;;;30.25;23.75;;;;;3.38;61.57;100716.88;5008062;28;45327;-79
2022/12/11 09:43:01;;;;;;;;;28.25;24.25;;;;;3.39;61.55;100720.38;5005993;28;46036;-79
2022/12/11 09:45:27;;;;;;;;;27.25;23.25;;;;;3.43;61.17;100728.28;5003509;28;45376;-79
2022/12/11 09:47:55;;;;;;;;;31.75;26.00;;;;;3.47;61.08;100734.44;5014406;28;45221;-81
2022/12/11 09:50:31;;;;;;;;;26.50;24.00;;;;;3.49;61.34;100719.47;5003948;28;45617;-79
2022/12/11 09:53:16;;;;;;;;;31.75;25.00;;;;;3.52;60.97;100730.00;5011946;28;46328;-79
2022/12/11 09:56:10;;;;;;;;;30.25;24.00;;;;;3.52;61.32;100732.66;5000668;28;45841;-83
2022/12/11 09:58:36;;;;;;;;;28.25;24.00;;;;;3.54;61.09;100730.88;5001020;28;45385;-82
2022/12/11 10:01:09;;;;;;;;;25.67;23.67;;;;;3.53;60.38;100737.91;5007017;28;45394;-75
2022/12/11 10:03:44;;;;;;;;;29.75;26.50;;;;;3.53;60.81;100742.34;5000526;28;46046;-81
2022/12/11 10:06:15;;;;;;;;;33.25;27.50;;;;;3.53;60.60;100737.91;5015571;28;45919;-79
2022/12/11 10:08:59;;;;;;;;;24.00;22.50;;;;;3.50;60.21;100740.56;5007628;28;45555;-78
2022/12/11 10:11:38;;;;;;;;;15.50;15.25;;;;;3.50;60.38;100743.22;4999003;28;45424;-79
2022/12/11 10:14:28;;;;;;;;;24.50;20.25;;;;;3.41;59.82;100747.63;5016849;28;46662;-78
2022/12/11 10:17:02;;;;;;;;;32.50;22.25;;;;;3.32;60.42;100730.97;5012094;28;47186;-78
2022/12/11 10:19:30;;;;;;;;;26.75;23.25;;;;;3.33;60.07;100739.75;5002136;28;45428;-76
2022/12/11 10:21:58;;;;;;;;;28.75;22.25;;;;;3.32;60.16;100727.44;5017308;28;45631;-76
2022/12/11 10:24:23;;;;;;;;;27.25;21.25;;;;;3.35;60.43;100724.78;5010478;28;45435;-77
2022/12/11 10:26:54;;;;;;;;;34.67;27.00;;;;;3.26;60.01;100719.56;5011819;28;45632;-77
2022/12/11 10:29:20;;;;;;;;;31.75;28.25;;;;;3.24;60.68;100711.66;5004832;28;45381;-76
2022/12/11 10:31:54;;;;;;;;;33.25;29.75;;;;;3.20;60.44;100704.59;5014874;28;45331;-78
2022/12/11 10:34:39;;;;;;;;;29.25;22.00;;;;;3.18;60.72;100713.41;5009055;28;48026;-79
2022/12/11 10:37:04;;;;;;;;;28.25;26.50;;;;;3.12;60.52;100706.38;5007659;28;45389;-75
2022/12/11 10:39:29;;;;;;;;;32.50;26.50;;;;;3.18;60.21;100706.38;5014244;28;45681;-74
2022/12/11 10:41:55;;;;;;;;;24.50;22.00;;;;;3.24;61.04;100711.66;5003574;28;45306;-74
2022/12/11 10:44:29;;;;;;;;;30.50;26.00;;;;;3.25;61.40;100694.91;5011103;28;46340;-74
2022/12/11 10:47:05;;;;;;;;;29.75;23.75;;;;;3.33;60.83;100702.81;5009257;28;45412;-74
2022/12/11 10:49:33;;;;;;;;;31.25;27.25;;;;;3.29;60.50;100701.94;5006108;28;45425;-77
2022/12/11 10:52:04;;;;;;;;;34.50;28.50;;;;;3.28;60.45;100692.28;5007481;28;45439;-77
2022/12/11 10:54:38;;;;;;;;;31.25;25.25;;;;;3.38;61.01;100694.88;4997304;28;46189;-79
2022/12/11 10:57:07;;;;;;;;;24.75;22.00;;;;;3.44;60.64;100705.41;4993769;28;45777;-79
2022/12/11 10:59:44;;;;;;;;;31.75;28.50;;;;;3.46;60.90;100695.75;5002859;28;45390;-77
2022/12/11 11:02:33;;;;;;;;;31.00;24.00;;;;;3.49;61.19;100693.97;5005407;28;45727;-80
2022/12/11 11:05:00;;;;;;;;;28.25;23.75;;;;;3.52;60.91;100685.13;5008882;28;45960;-74
2022/12/11 11:07:29;;;;;;;;;31.25;26.25;;;;;3.52;60.79;100682.50;5007533;28;46040;-70
2022/12/11 11:10:10;;;;;;;;;29.25;23.50;;;;;3.58;60.57;100684.25;5005035;28;47033;-75
2022/12/11 11:12:47;;;;;;;;;23.75;18.75;;;;;3.55;60.13;100674.56;5013265;28;45718;-76
2022/12/11 11:15:14;;;;;;;;;22.50;22.50;;;;;3.57;60.12;100678.06;5006952;28;46108;-73
2022/12/11 11:17:50;;;;;;;;;20.00;18.75;;;;;3.60;60.10;100675.44;4996827;28;45388;-74
2022/12/11 11:20:18;;;;;;;;;27.25;23.00;;;;;3.64;59.94;100677.19;5002748;28;45518;-75
2022/12/11 11:22:48;;;;;;;;;23.00;19.50;;;;;3.68;60.03;100676.25;5006768;28;45669;-74
2022/12/11 11:25:22;;;;;;;;;32.50;26.00;;;;;3.73;60.12;100675.38;4996119;28;46906;-74
2022/12/11 11:27:51;;;;;;;;;28.50;23.75;;;;;3.76;59.61;100675.34;5001744;28;45656;-75
2022/12/11 11:30:22;;;;;;;;;26.00;23.75;;;;;3.81;59.39;100676.19;4996995;28;45632;-76
2022/12/11 11:32:53;;;;;;;;;32.50;29.50;;;;;3.81;59.70;100673.56;5013150;28;45401;-70
2022/12/11 11:35:22;;;;;;;;;30.00;27.25;;;;;3.84;59.95;100676.19;5001531;28;47278;-75
2022/12/11 11:38:08;;;;;;;;;26.25;24.75;;;;;3.88;59.88;100672.66;5003952;28;46008;-75